Time;durP1;ratioP1;P1;durP2;ratioP2;P2;SDS_P1;SDS_P2;PMS_P1;PMS_P2;Temp;Humidity;BMP_temperature;BMP_pressure;BME280_temperature;BME280_humidity;BME280_pressure;Samples;Min_cycle;Max_cycle;Signal;HPM_P1;HPM_P2
2022/03/09 00:02:11;;;;;;;17.40;4.38;;;;;;;;;;5050890;28;20031;-64
2022/03/09 00:04:37;;;;;;;19.02;4.43;;;;;;;;;;5037893;28;20025;-64
2022/03/09 00:07:04;;;;;;;23.00;5.13;;;;;;;;;;5037471;28;20028;-64
2022/03/09 00:09:30;;;;;;;21.77;5.22;;;;;;;;;;5052702;28;20036;-64
2022/03/09 00:11:56;;;;;;;16.13;4.75;;;;;;;;;;5053560;28;20539;-64
2022/03/09 00:14:23;;;;;;;19.98;4.80;;;;;;;;;;5052321;28;20112;-64
2022/03/09 00:16:50;;;;;;;22.92;5.03;;;;;;;;;;5041507;28;20052;-64
2022/03/09 00:19:17;;;;;;;14.18;4.78;;;;;;;;;;5033448;28;20036;-64
2022/03/09 00:21:43;;;;;;;19.60;4.40;;;;;;;;;;5033634;28;20034;-64
2022/03/09 00:24:09;;;;;;;22.33;5.38;;;;;;;;;;5033525;28;20037;-64
2022/03/09 00:26:35;;;;;;;13.15;3.20;;;;;;;;;;5033634;28;20029;-64
2022/03/09 00:29:01;;;;;;;15.65;4.00;;;;;;;;;;5037115;28;20039;-64
2022/03/09 00:31:28;;;;;;;20.63;4.18;;;;;;;;;;5051298;28;20025;-64
2022/03/09 00:33:54;;;;;;;24.67;5.25;;;;;;;;;;5053012;28;20021;-64
2022/03/09 00:36:20;;;;;;;11.75;3.03;;;;;;;;;;5053091;28;20032;-64
2022/03/09 00:38:46;;;;;;;14.48;4.20;;;;;;;;;;5053254;28;20368;-64
2022/03/09 00:41:14;;;;;;;20.15;3.90;;;;;;;;;;5036619;28;20063;-64
2022/03/09 00:43:40;;;;;;;24.13;4.00;;;;;;;;;;5033284;28;20067;-64
2022/03/09 00:46:06;;;;;;;18.75;4.10;;;;;;;;;;5032694;28;20374;-64
2022/03/09 00:48:32;;;;;;;14.13;3.22;;;;;;;;;;5032987;28;20108;-64
2022/03/09 00:50:58;;;;;;;16.85;3.90;;;;;;;;;;5050436;28;20039;-64
2022/03/09 00:53:24;;;;;;;24.08;6.03;;;;;;;;;;5052763;28;20656;-64
2022/03/09 00:55:50;;;;;;;20.67;4.20;;;;;;;;;;5046454;28;20100;-64
2022/03/09 00:58:16;;;;;;;17.20;3.47;;;;;;;;;;5032734;28;20407;-64
2022/03/09 01:00:42;;;;;;;16.08;2.97;;;;;;;;;;5033218;28;20099;-64
2022/03/09 01:03:09;;;;;;;11.43;2.90;;;;;;;;;;5042609;28;20082;-64
2022/03/09 01:05:35;;;;;;;17.30;3.83;;;;;;;;;;5032897;28;20033;-64
2022/03/09 01:08:02;;;;;;;16.75;4.50;;;;;;;;;;5032440;28;20057;-64
2022/03/09 01:10:28;;;;;;;12.55;3.63;;;;;;;;;;5033528;28;20033;-64
2022/03/09 01:12:55;;;;;;;14.43;4.18;;;;;;;;;;5032790;28;20053;-64
2022/03/09 01:15:21;;;;;;;19.58;3.35;;;;;;;;;;5033110;28;20029;-64
2022/03/09 01:17:47;;;;;;;17.45;4.78;;;;;;;;;;5041930;28;20075;-64
2022/03/09 01:20:13;;;;;;;15.70;3.55;;;;;;;;;;5052562;28;20032;-64
2022/03/09 01:22:40;;;;;;;16.25;3.72;;;;;;;;;;5037969;28;20029;-64
2022/03/09 01:25:06;;;;;;;20.55;3.67;;;;;;;;;;5040430;28;20485;-64
2022/03/09 01:27:32;;;;;;;16.73;4.25;;;;;;;;;;5039864;28;20033;-64
2022/03/09 01:29:58;;;;;;;14.88;3.60;;;;;;;;;;5033516;28;20040;-64
2022/03/09 01:32:24;;;;;;;12.32;3.22;;;;;;;;;;5034320;28;20033;-64
2022/03/09 01:34:50;;;;;;;14.35;3.05;;;;;;;;;;5052666;28;20029;-64
2022/03/09 01:37:17;;;;;;;23.90;4.35;;;;;;;;;;5047625;28;20033;-64
2022/03/09 01:39:43;;;;;;;22.90;4.13;;;;;;;;;;5046202;28;20021;-64
2022/03/09 01:42:09;;;;;;;20.20;3.58;;;;;;;;;;5049968;28;20033;-64
2022/03/09 01:44:35;;;;;;;22.30;3.83;;;;;;;;;;5039659;28;20388;-64
2022/03/09 01:47:02;;;;;;;17.50;3.28;;;;;;;;;;5036415;28;20497;-64
2022/03/09 01:49:28;;;;;;;20.02;3.70;;;;;;;;;;5040863;28;20029;-64
2022/03/09 01:51:56;;;;;;;21.55;3.15;;;;;;;;;;5042344;28;20041;-64
2022/03/09 01:54:22;;;;;;;19.27;3.60;;;;;;;;;;5035769;28;20045;-64
2022/03/09 01:56:49;;;;;;;19.40;3.70;;;;;;;;;;5036340;28;20470;-64
2022/03/09 01:59:17;;;;;;;24.05;3.38;;;;;;;;;;5041400;28;20029;-64
2022/03/09 02:01:44;;;;;;;15.30;4.65;;;;;;;;;;5039752;28;20430;-64
2022/03/09 02:04:10;;;;;;;15.52;3.25;;;;;;;;;;5053704;28;20618;-64
2022/03/09 02:06:38;;;;;;;19.95;4.88;;;;;;;;;;5055874;28;20049;-64
2022/03/09 02:11:51;;;;;;;21.95;3.92;;;;;;;;;;5035716;28;20056;-64
2022/03/09 02:14:27;;;;;;;22.88;4.07;;;;;;;;;;5035887;28;20164;-64
2022/03/09 02:16:53;;;;;;;18.88;4.10;;;;;;;;;;5037901;28;20075;-64
2022/03/09 02:19:20;;;;;;;25.73;3.78;;;;;;;;;;5038025;28;20036;-64
2022/03/09 02:21:48;;;;;;;18.48;3.20;;;;;;;;;;5035847;28;20470;-64
2022/03/09 02:24:14;;;;;;;17.85;5.05;;;;;;;;;;5035361;28;20022;-64
2022/03/09 02:26:41;;;;;;;15.95;3.30;;;;;;;;;;5053411;28;20021;-64
2022/03/09 02:29:07;;;;;;;13.02;3.22;;;;;;;;;;5040488;28;20112;-64
2022/03/09 02:31:33;;;;;;;15.02;3.53;;;;;;;;;;5052678;28;20033;-64
2022/03/09 02:33:59;;;;;;;13.55;3.47;;;;;;;;;;5046632;28;20108;-64
2022/03/09 02:36:25;;;;;;;12.45;4.22;;;;;;;;;;5035433;28;20017;-64
2022/03/09 02:38:51;;;;;;;11.35;3.30;;;;;;;;;;5035249;28;20029;-64
2022/03/09 02:41:17;;;;;;;19.50;4.25;;;;;;;;;;5035823;28;20044;-64
2022/03/09 02:43:43;;;;;;;17.63;3.60;;;;;;;;;;5035044;28;20040;-64
2022/03/09 02:46:09;;;;;;;15.23;4.03;;;;;;;;;;5035544;28;20029;-64
2022/03/09 02:48:36;;;;;;;18.92;3.88;;;;;;;;;;5035115;28;20029;-64
2022/03/09 02:51:02;;;;;;;15.00;3.05;;;;;;;;;;5038704;28;20059;-64
2022/03/09 02:53:28;;;;;;;17.05;5.25;;;;;;;;;;5043712;28;20025;-64
2022/03/09 02:55:54;;;;;;;15.45;2.53;;;;;;;;;;5034220;28;20021;-64
2022/03/09 02:58:21;;;;;;;19.13;3.30;;;;;;;;;;5035267;28;20025;-64
2022/03/09 03:00:47;;;;;;;22.80;3.17;;;;;;;;;;5039352;28;20039;-64
2022/03/09 03:03:13;;;;;;;17.40;3.17;;;;;;;;;;5054975;28;20120;-64
2022/03/09 03:05:39;;;;;;;13.15;3.00;;;;;;;;;;5044851;28;20156;-64
2022/03/09 03:08:05;;;;;;;12.00;2.80;;;;;;;;;;5034735;28;20045;-64
2022/03/09 03:10:31;;;;;;;20.50;3.53;;;;;;;;;;5041844;28;20028;-64
2022/03/09 03:12:57;;;;;;;19.10;3.13;;;;;;;;;;5036660;28;20053;-64
2022/03/09 03:15:23;;;;;;;17.45;2.88;;;;;;;;;;5034994;28;20037;-64
2022/03/09 03:17:49;;;;;;;20.40;2.92;;;;;;;;;;5034765;28;20600;-64
2022/03/09 03:20:15;;;;;;;20.45;3.90;;;;;;;;;;5036884;28;20032;-64
2022/03/09 03:22:42;;;;;;;11.98;2.92;;;;;;;;;;5034341;28;20047;-64
2022/03/09 03:25:08;;;;;;;13.73;3.30;;;;;;;;;;5038542;28;20198;-64
2022/03/09 03:27:34;;;;;;;14.43;3.67;;;;;;;;;;5038334;28;20032;-64
2022/03/09 03:30:00;;;;;;;19.55;5.68;;;;;;;;;;5034319;28;20053;-64
2022/03/09 03:32:26;;;;;;;17.30;3.20;;;;;;;;;;5034198;28;20036;-64
2022/03/09 03:34:52;;;;;;;15.65;3.03;;;;;;;;;;5051565;28;20025;-64
2022/03/09 03:37:18;;;;;;;20.00;3.35;;;;;;;;;;5051658;28;20420;-64
2022/03/09 03:39:45;;;;;;;13.48;4.15;;;;;;;;;;5046396;28;20029;-64
2022/03/09 03:42:11;;;;;;;19.13;3.20;;;;;;;;;;5051135;28;20040;-64
2022/03/09 03:44:37;;;;;;;15.45;2.88;;;;;;;;;;5050711;28;20037;-64
2022/03/09 03:47:04;;;;;;;16.30;3.30;;;;;;;;;;5033704;28;20022;-64
2022/03/09 03:49:30;;;;;;;22.88;3.78;;;;;;;;;;5044574;28;20036;-64
2022/03/09 03:51:56;;;;;;;9.05;2.55;;;;;;;;;;5047845;28;20029;-64
2022/03/09 03:54:22;;;;;;;11.80;2.83;;;;;;;;;;5042546;28;20056;-64
2022/03/09 03:56:48;;;;;;;18.55;3.22;;;;;;;;;;5032724;28;20040;-64
2022/03/09 03:59:14;;;;;;;19.27;4.22;;;;;;;;;;5038818;28;20390;-64
2022/03/09 04:01:40;;;;;;;17.73;3.28;;;;;;;;;;5051065;28;20504;-64
2022/03/09 04:04:07;;;;;;;27.30;3.17;;;;;;;;;;5051557;28;20107;-64
2022/03/09 04:06:33;;;;;;;11.73;2.50;;;;;;;;;;5049327;28;20042;-64
2022/03/09 04:08:59;;;;;;;18.20;3.28;;;;;;;;;;5036399;28;20036;-64
2022/03/09 04:11:25;;;;;;;16.52;3.17;;;;;;;;;;5044979;28;20025;-64
2022/03/09 04:13:51;;;;;;;19.58;3.97;;;;;;;;;;5047510;28;20045;-64
2022/03/09 04:16:17;;;;;;;19.73;3.17;;;;;;;;;;5036079;28;20041;-64
2022/03/09 04:18:43;;;;;;;11.50;2.47;;;;;;;;;;5033433;28;20061;-64
2022/03/09 04:21:09;;;;;;;19.27;3.03;;;;;;;;;;5033337;28;20025;-64
2022/03/09 04:23:35;;;;;;;14.75;3.03;;;;;;;;;;5033332;28;20446;-64
2022/03/09 04:26:02;;;;;;;25.88;3.97;;;;;;;;;;5041915;28;20094;-64
2022/03/09 04:28:28;;;;;;;21.25;3.60;;;;;;;;;;5040389;28;20073;-64
2022/03/09 04:30:54;;;;;;;20.13;2.83;;;;;;;;;;5033385;28;20025;-64
2022/03/09 04:33:21;;;;;;;26.33;2.92;;;;;;;;;;5037853;28;20104;-64
2022/03/09 04:35:47;;;;;;;20.55;2.80;;;;;;;;;;5045022;28;20095;-64
2022/03/09 04:38:13;;;;;;;26.20;4.72;;;;;;;;;;5047480;28;20072;-64
2022/03/09 04:40:39;;;;;;;15.95;3.08;;;;;;;;;;5046484;28;20051;-64
2022/03/09 04:43:06;;;;;;;14.43;2.97;;;;;;;;;;5033892;28;20029;-64
2022/03/09 04:45:33;;;;;;;21.58;2.72;;;;;;;;;;5041123;28;20120;-64
2022/03/09 04:47:59;;;;;;;15.10;3.22;;;;;;;;;;5041360;28;20041;-64
2022/03/09 04:50:25;;;;;;;13.40;3.03;;;;;;;;;;5050114;28;20017;-64
2022/03/09 04:52:51;;;;;;;18.67;2.97;;;;;;;;;;5043906;28;20067;-64
2022/03/09 04:55:17;;;;;;;15.07;3.13;;;;;;;;;;5042955;28;20040;-64
2022/03/09 04:57:43;;;;;;;17.80;3.13;;;;;;;;;;5043405;28;20061;-64
2022/03/09 05:00:10;;;;;;;14.73;2.90;;;;;;;;;;5050787;28;20025;-64
2022/03/09 05:02:36;;;;;;;11.43;2.33;;;;;;;;;;5049045;28;20408;-64
2022/03/09 05:05:02;;;;;;;15.63;2.15;;;;;;;;;;5044590;28;20477;-64
2022/03/09 05:07:29;;;;;;;10.60;2.40;;;;;;;;;;5043688;28;20025;-64
2022/03/09 05:09:55;;;;;;;16.58;2.78;;;;;;;;;;5045239;28;20025;-64
2022/03/09 05:12:21;;;;;;;16.90;3.00;;;;;;;;;;5038690;28;20048;-64
2022/03/09 05:14:47;;;;;;;15.90;2.67;;;;;;;;;;5048232;28;20048;-64
2022/03/09 05:17:13;;;;;;;17.65;2.65;;;;;;;;;;5032552;28;20075;-64
2022/03/09 05:19:39;;;;;;;14.55;2.75;;;;;;;;;;5048914;28;20036;-64
2022/03/09 05:22:06;;;;;;;8.38;2.22;;;;;;;;;;5049889;28;20432;-64
2022/03/09 05:24:32;;;;;;;12.60;2.63;;;;;;;;;;5048277;28;20116;-64
2022/03/09 05:26:58;;;;;;;12.93;2.47;;;;;;;;;;5037335;28;20086;-64
2022/03/09 05:29:25;;;;;;;12.75;3.30;;;;;;;;;;5036572;28;20025;-64
2022/03/09 05:31:51;;;;;;;10.93;2.70;;;;;;;;;;5040554;28;20399;-64
2022/03/09 05:34:17;;;;;;;19.50;3.65;;;;;;;;;;5045631;28;20034;-64
2022/03/09 05:36:43;;;;;;;19.67;3.75;;;;;;;;;;5047554;28;20100;-64
2022/03/09 05:39:10;;;;;;;29.77;4.97;;;;;;;;;;5039124;28;20151;-64
2022/03/09 05:41:36;;;;;;;18.42;3.75;;;;;;;;;;5035913;28;20444;-64
2022/03/09 05:44:02;;;;;;;13.38;3.22;;;;;;;;;;5045346;28;20032;-64
2022/03/09 05:46:29;;;;;;;13.25;3.50;;;;;;;;;;5039938;28;20029;-64
2022/03/09 05:48:55;;;;;;;26.98;3.70;;;;;;;;;;5040446;28;20035;-64
2022/03/09 05:51:21;;;;;;;23.77;3.63;;;;;;;;;;5032266;28;20105;-64
2022/03/09 05:53:47;;;;;;;22.60;4.63;;;;;;;;;;5034059;28;20117;-64
2022/03/09 05:56:13;;;;;;;17.65;3.20;;;;;;;;;;5039544;28;20017;-65
2022/03/09 05:58:40;;;;;;;19.70;3.40;;;;;;;;;;5045942;28;20079;-64
2022/03/09 06:01:06;;;;;;;24.33;3.88;;;;;;;;;;5043240;28;20059;-65
2022/03/09 06:03:32;;;;;;;19.05;3.97;;;;;;;;;;5042232;28;20036;-64
2022/03/09 06:05:58;;;;;;;20.83;3.75;;;;;;;;;;5039923;28;20029;-65
2022/03/09 06:08:24;;;;;;;18.17;3.67;;;;;;;;;;5043519;28;20043;-64
2022/03/09 06:10:51;;;;;;;26.63;3.75;;;;;;;;;;5037303;28;20430;-64
2022/03/09 06:13:18;;;;;;;16.27;4.47;;;;;;;;;;5042913;28;20060;-64
2022/03/09 06:15:48;;;;;;;20.90;2.85;;;;;;;;;;5040663;28;20497;-64
2022/03/09 06:18:14;;;;;;;22.88;4.10;;;;;;;;;;5039603;28;20112;-64
2022/03/09 06:20:40;;;;;;;14.13;3.45;;;;;;;;;;5036555;28;20361;-64
2022/03/09 06:23:06;;;;;;;22.58;3.20;;;;;;;;;;5037106;28;20033;-64
2022/03/09 06:25:34;;;;;;;19.45;5.47;;;;;;;;;;5034198;28;20025;-65
2022/03/09 06:28:00;;;;;;;18.55;4.03;;;;;;;;;;5036918;28;20156;-64
2022/03/09 06:30:27;;;;;;;25.17;4.20;;;;;;;;;;5038227;28;20028;-64
2022/03/09 06:32:53;;;;;;;31.38;3.75;;;;;;;;;;5042361;28;20170;-64
2022/03/09 06:35:20;;;;;;;25.70;4.20;;;;;;;;;;5044829;28;20033;-64
2022/03/09 06:37:47;;;;;;;22.45;4.38;;;;;;;;;;5044839;28;20028;-63
2022/03/09 06:40:13;;;;;;;22.17;3.88;;;;;;;;;;5046899;28;20044;-63
2022/03/09 06:42:39;;;;;;;21.50;3.35;;;;;;;;;;5045241;28;20029;-63
2022/03/09 06:45:06;;;;;;;21.33;4.32;;;;;;;;;;5044787;28;20374;-63
2022/03/09 06:47:35;;;;;;;26.13;4.95;;;;;;;;;;5040897;28;20080;-63
2022/03/09 06:50:01;;;;;;;19.33;3.65;;;;;;;;;;5051701;28;20074;-63
2022/03/09 06:52:28;;;;;;;22.73;3.60;;;;;;;;;;5044508;28;20091;-63
2022/03/09 06:54:54;;;;;;;20.38;3.60;;;;;;;;;;5044157;28;20100;-63
2022/03/09 06:57:20;;;;;;;30.67;3.78;;;;;;;;;;5043839;28;20053;-63
2022/03/09 06:59:46;;;;;;;23.27;4.30;;;;;;;;;;5048577;28;20025;-63
2022/03/09 07:02:12;;;;;;;26.50;4.63;;;;;;;;;;5039369;28;20132;-63
2022/03/09 07:04:38;;;;;;;24.85;3.40;;;;;;;;;;5041297;28;20029;-63
2022/03/09 07:07:05;;;;;;;22.13;3.60;;;;;;;;;;5042213;28;20374;-63
2022/03/09 07:09:31;;;;;;;29.77;4.10;;;;;;;;;;5049266;28;20029;-63
2022/03/09 07:11:57;;;;;;;26.08;5.57;;;;;;;;;;5041655;28;20083;-63
2022/03/09 07:14:24;;;;;;;29.70;3.88;;;;;;;;;;5040340;28;20036;-63
2022/03/09 07:16:50;;;;;;;19.67;3.70;;;;;;;;;;5033476;28;20029;-63
2022/03/09 07:19:16;;;;;;;24.63;3.63;;;;;;;;;;5044165;28;20079;-63
2022/03/09 07:21:42;;;;;;;22.80;3.72;;;;;;;;;;5046396;28;20040;-63
2022/03/09 07:24:08;;;;;;;24.95;3.38;;;;;;;;;;5044340;28;20029;-63
2022/03/09 07:26:40;;;;;;;25.80;4.70;;;;;;;;;;5043452;28;20029;-63
2022/03/09 07:29:07;;;;;;;20.27;3.87;;;;;;;;;;5039887;28;20043;-63
2022/03/09 07:31:33;;;;;;;24.27;4.80;;;;;;;;;;5043133;28;20321;-63
2022/03/09 07:33:59;;;;;;;23.92;3.92;;;;;;;;;;5044429;28;20725;-63
2022/03/09 07:36:25;;;;;;;24.35;3.47;;;;;;;;;;5052263;28;20024;-63
2022/03/09 07:38:51;;;;;;;24.90;3.78;;;;;;;;;;5040522;28;20021;-63
2022/03/09 07:41:17;;;;;;;31.15;4.80;;;;;;;;;;5043286;28;20037;-63
2022/03/09 07:43:44;;;;;;;24.70;3.78;;;;;;;;;;5035477;28;20416;-63
2022/03/09 07:46:10;;;;;;;28.30;4.22;;;;;;;;;;5038564;28;20512;-63
2022/03/09 07:48:36;;;;;;;14.73;3.00;;;;;;;;;;5034081;28;20400;-63
2022/03/09 07:51:02;;;;;;;26.00;5.22;;;;;;;;;;5039360;28;20028;-63
2022/03/09 07:53:28;;;;;;;31.08;4.13;;;;;;;;;;5039263;28;20033;-63
2022/03/09 07:55:54;;;;;;;19.30;3.85;;;;;;;;;;5039491;28;20023;-63
2022/03/09 07:58:20;;;;;;;23.27;3.85;;;;;;;;;;5042157;28;20087;-63
2022/03/09 08:00:47;;;;;;;26.48;3.88;;;;;;;;;;5040077;28;20183;-63
2022/03/09 08:03:13;;;;;;;25.02;3.75;;;;;;;;;;5043333;28;20163;-63
2022/03/09 08:05:39;;;;;;;26.30;4.07;;;;;;;;;;5040307;28;20037;-63
2022/03/09 08:08:05;;;;;;;24.02;2.97;;;;;;;;;;5040902;28;20040;-63
2022/03/09 08:10:31;;;;;;;17.95;3.92;;;;;;;;;;5046829;28;20104;-63
2022/03/09 08:12:57;;;;;;;21.55;2.80;;;;;;;;;;5040631;28;20052;-63
2022/03/09 08:15:24;;;;;;;24.25;3.63;;;;;;;;;;5044954;28;20049;-63
2022/03/09 08:17:50;;;;;;;22.23;3.25;;;;;;;;;;5051577;28;20120;-65
2022/03/09 08:20:16;;;;;;;16.60;2.97;;;;;;;;;;5046466;28;20083;-65
2022/03/09 08:22:42;;;;;;;25.08;4.43;;;;;;;;;;5044035;28;20021;-63
2022/03/09 08:25:09;;;;;;;12.10;3.00;;;;;;;;;;5045333;28;20032;-63
2022/03/09 08:27:35;;;;;;;24.70;3.65;;;;;;;;;;5046169;28;20056;-63
2022/03/09 08:30:01;;;;;;;19.15;3.88;;;;;;;;;;5043756;28;20417;-64
2022/03/09 08:32:27;;;;;;;18.92;2.95;;;;;;;;;;5037063;28;20029;-63
2022/03/09 08:34:54;;;;;;;25.55;4.38;;;;;;;;;;5052063;28;20040;-67
2022/03/09 08:37:20;;;;;;;25.60;6.07;;;;;;;;;;5047767;28;20026;-67
2022/03/09 08:39:48;;;;;;;18.60;3.72;;;;;;;;;;5042852;28;20021;-67
2022/03/09 08:42:15;;;;;;;20.15;3.30;;;;;;;;;;5052058;28;20392;-67
2022/03/09 08:44:41;;;;;;;20.25;3.67;;;;;;;;;;5043273;28;20109;-67
2022/03/09 08:47:07;;;;;;;23.05;3.28;;;;;;;;;;5046431;28;20434;-67
2022/03/09 08:49:36;;;;;;;20.08;3.25;;;;;;;;;;5035522;28;20430;-66
2022/03/09 08:52:04;;;;;;;18.42;3.20;;;;;;;;;;5042342;28;20109;-66
2022/03/09 08:54:30;;;;;;;22.10;3.15;;;;;;;;;;5040493;28;20036;-65
2022/03/09 08:56:56;;;;;;;20.30;3.28;;;;;;;;;;5041044;28;20113;-65
2022/03/09 08:59:23;;;;;;;17.65;2.65;;;;;;;;;;5044856;28;20059;-66
2022/03/09 09:01:50;;;;;;;18.98;3.03;;;;;;;;;;5038614;28;20032;-66
2022/03/09 09:04:17;;;;;;;21.25;3.28;;;;;;;;;;5043315;28;20043;-66
2022/03/09 09:06:46;;;;;;;21.83;3.33;;;;;;;;;;5037728;28;20037;-66
2022/03/09 09:09:14;;;;;;;23.52;3.42;;;;;;;;;;5043512;28;20042;-66
2022/03/09 09:11:40;;;;;;;15.55;2.80;;;;;;;;;;5037677;28;20030;-66
2022/03/09 09:14:06;;;;;;;18.45;2.55;;;;;;;;;;5044316;28;20036;-66
2022/03/09 09:16:33;;;;;;;13.00;2.60;;;;;;;;;;5041095;28;20047;-66
2022/03/09 09:18:59;;;;;;;15.35;3.63;;;;;;;;;;5039579;28;20055;-66
2022/03/09 09:21:25;;;;;;;25.42;3.45;;;;;;;;;;5035307;28;20021;-66
2022/03/09 09:23:51;;;;;;;19.00;3.33;;;;;;;;;;5040847;28;20039;-67
2022/03/09 09:26:18;;;;;;;17.20;2.70;;;;;;;;;;5047425;28;20072;-66
2022/03/09 09:28:44;;;;;;;10.23;2.70;;;;;;;;;;5037271;28;20067;-63
2022/03/09 09:31:10;;;;;;;16.85;2.58;;;;;;;;;;5037154;28;20025;-63
2022/03/09 09:33:36;;;;;;;22.63;3.72;;;;;;;;;;5041197;28;20032;-63
2022/03/09 09:36:03;;;;;;;20.35;2.63;;;;;;;;;;5045439;28;20021;-63
2022/03/09 09:38:29;;;;;;;14.23;2.35;;;;;;;;;;5045030;28;20064;-63
2022/03/09 09:40:56;;;;;;;14.95;3.88;;;;;;;;;;5034952;28;20084;-63
2022/03/09 09:43:23;;;;;;;12.27;4.47;;;;;;;;;;5039610;28;20489;-63
2022/03/09 09:45:49;;;;;;;12.35;2.10;;;;;;;;;;5038306;28;20036;-63
2022/03/09 09:48:16;;;;;;;19.55;3.05;;;;;;;;;;5042653;28;20040;-63
2022/03/09 09:50:43;;;;;;;16.02;2.88;;;;;;;;;;5046718;28;20481;-63
2022/03/09 09:53:10;;;;;;;16.05;2.38;;;;;;;;;;5034761;28;20017;-63
2022/03/09 09:55:37;;;;;;;15.82;2.50;;;;;;;;;;5044174;28;20043;-64
2022/03/09 09:58:03;;;;;;;17.50;2.63;;;;;;;;;;5039732;28;20021;-64
2022/03/09 10:00:30;;;;;;;21.65;2.13;;;;;;;;;;5036306;28;20495;-64
2022/03/09 10:02:56;;;;;;;11.48;2.47;;;;;;;;;;5037238;28;20112;-63
2022/03/09 10:05:22;;;;;;;17.98;3.13;;;;;;;;;;5041174;28;20087;-64
2022/03/09 10:08:03;;;;;;;11.23;2.85;;;;;;;;;;5035521;28;20109;-64
2022/03/09 10:10:34;;;;;;;12.50;2.40;;;;;;;;;;5037767;28;20040;-64
2022/03/09 10:13:13;;;;;;;10.23;2.75;;;;;;;;;;5040348;28;20489;-63
2022/03/09 10:15:42;;;;;;;9.48;1.85;;;;;;;;;;5042144;28;20029;-64
2022/03/09 10:18:13;;;;;;;17.63;2.90;;;;;;;;;;5036316;28;20037;-64
2022/03/09 10:20:40;;;;;;;10.40;1.63;;;;;;;;;;5049599;28;20413;-63
2022/03/09 10:23:08;;;;;;;14.05;2.05;;;;;;;;;;5037701;28;20029;-64
2022/03/09 10:25:35;;;;;;;13.15;3.05;;;;;;;;;;5047591;28;20021;-64
2022/03/09 10:28:06;;;;;;;13.65;2.13;;;;;;;;;;5045815;28;20401;-64
2022/03/09 10:30:37;;;;;;;14.73;2.95;;;;;;;;;;5046299;28;20040;-64
2022/03/09 10:33:11;;;;;;;11.75;2.15;;;;;;;;;;5055810;28;20025;-64
2022/03/09 10:35:37;;;;;;;13.20;2.72;;;;;;;;;;5044699;28;20028;-63
2022/03/09 10:38:23;;;;;;;14.05;2.30;;;;;;;;;;5042858;28;20104;-63
2022/03/09 10:40:51;;;;;;;9.38;2.25;;;;;;;;;;5043013;28;20545;-64
2022/03/09 10:43:21;;;;;;;9.40;2.30;;;;;;;;;;5042648;28;20037;-64
2022/03/09 10:46:16;;;;;;;20.40;2.10;;;;;;;;;;5039399;28;20041;-64
2022/03/09 10:49:00;;;;;;;18.17;2.50;;;;;;;;;;5039805;28;20562;-64
2022/03/09 10:51:29;;;;;;;10.07;2.10;;;;;;;;;;5035779;28;20029;-63
2022/03/09 10:53:56;;;;;;;10.45;2.00;;;;;;;;;;5041807;28;20037;-64
2022/03/09 10:56:23;;;;;;;15.13;2.42;;;;;;;;;;5037872;28;20017;-64
2022/03/09 10:58:49;;;;;;;10.60;2.38;;;;;;;;;;5040823;28;20026;-64
2022/03/09 11:01:19;;;;;;;14.20;2.40;;;;;;;;;;5046926;28;20249;-64
2022/03/09 11:03:46;;;;;;;17.48;2.50;;;;;;;;;;5033770;28;20029;-64
2022/03/09 11:06:12;;;;;;;17.90;2.13;;;;;;;;;;5037222;28;20036;-63
2022/03/09 11:08:39;;;;;;;16.48;2.08;;;;;;;;;;5040567;28;20382;-64
2022/03/09 11:11:06;;;;;;;14.10;2.33;;;;;;;;;;5041021;28;20044;-64
2022/03/09 11:13:36;;;;;;;14.88;2.80;;;;;;;;;;5056799;28;20040;-63
2022/03/09 11:16:03;;;;;;;11.43;1.92;;;;;;;;;;5049472;28;20179;-64
2022/03/09 11:18:30;;;;;;;11.23;2.00;;;;;;;;;;5041560;28;20480;-64
2022/03/09 11:21:02;;;;;;;15.27;2.58;;;;;;;;;;5042043;28;20100;-63
2022/03/09 11:23:29;;;;;;;9.80;1.90;;;;;;;;;;5039985;28;20034;-64
2022/03/09 11:26:07;;;;;;;12.13;2.00;;;;;;;;;;5043127;28;20075;-63
2022/03/09 11:28:40;;;;;;;17.63;2.30;;;;;;;;;;5043002;28;20049;-63
2022/03/09 11:31:08;;;;;;;8.20;2.08;;;;;;;;;;5039932;28;20034;-64
2022/03/09 11:33:42;;;;;;;12.75;2.45;;;;;;;;;;5035502;28;20026;-64
2022/03/09 11:36:23;;;;;;;7.68;1.92;;;;;;;;;;5039872;28;20041;-63
2022/03/09 11:38:52;;;;;;;16.95;1.90;;;;;;;;;;5039662;28;20368;-64
2022/03/09 11:41:25;;;;;;;11.77;1.90;;;;;;;;;;5039631;28;20029;-63
2022/03/09 11:43:53;;;;;;;21.88;3.97;;;;;;;;;;5041466;28;20028;-64
2022/03/09 11:46:19;;;;;;;23.27;5.07;;;;;;;;;;5039548;28;20072;-64
2022/03/09 11:48:51;;;;;;;11.70;2.00;;;;;;;;;;5036201;28;20048;-64
2022/03/09 11:51:18;;;;;;;11.48;2.03;;;;;;;;;;5048076;28;20582;-63
2022/03/09 11:53:48;;;;;;;12.32;1.70;;;;;;;;;;5043760;28;20028;-63
2022/03/09 11:56:21;;;;;;;13.00;3.78;;;;;;;;;;5038317;28;20032;-63
2022/03/09 11:58:47;;;;;;;;;;;;;;;;;;5038029;28;20075;-64
2022/03/09 12:01:13;;;;;;;10.73;2.00;;;;;;;;;;5041058;28;19947;-63
2022/03/09 12:03:41;;;;;;;13.60;1.90;;;;;;;;;;5039753;28;20111;-63
2022/03/09 12:06:27;;;;;;;9.55;1.98;;;;;;;;;;5040976;28;20085;-67
2022/03/09 12:08:53;;;;;;;8.80;2.80;;;;;;;;;;5033364;28;20041;-63
2022/03/09 12:11:19;;;;;;;17.80;2.72;;;;;;;;;;5035998;28;20123;-63
2022/03/09 12:13:46;;;;;;;9.65;1.92;;;;;;;;;;5048906;28;20076;-63
2022/03/09 12:16:12;;;;;;;11.30;1.92;;;;;;;;;;5044964;28;20056;-63
2022/03/09 12:18:40;;;;;;;11.18;2.10;;;;;;;;;;5035224;28;20029;-63
2022/03/09 12:21:07;;;;;;;11.35;2.38;;;;;;;;;;5038658;28;20033;-63
2022/03/09 12:23:34;;;;;;;11.85;1.80;;;;;;;;;;5043628;28;20462;-63
2022/03/09 12:26:01;;;;;;;8.40;1.75;;;;;;;;;;5048271;28;20052;-63
2022/03/09 12:28:35;;;;;;;14.70;2.10;;;;;;;;;;5038222;28;20116;-63
2022/03/09 12:31:03;;;;;;;11.02;2.00;;;;;;;;;;5038443;28;20032;-63
2022/03/09 12:33:31;;;;;;;7.80;1.67;;;;;;;;;;5036863;28;20036;-63
2022/03/09 12:36:06;;;;;;;10.05;1.55;;;;;;;;;;5032853;28;20118;-63
2022/03/09 12:38:44;;;;;;;10.18;1.80;;;;;;;;;;5035265;28;20030;-63
2022/03/09 12:41:29;;;;;;;6.80;1.52;;;;;;;;;;5044430;28;20029;-63
2022/03/09 12:43:57;;;;;;;6.00;1.75;;;;;;;;;;5043813;28;20071;-66
2022/03/09 12:46:24;;;;;;;11.60;1.92;;;;;;;;;;5035617;28;20051;-63
2022/03/09 12:48:50;;;;;;;7.00;1.42;;;;;;;;;;5036339;28;20065;-63
2022/03/09 12:51:16;;;;;;;6.82;1.50;;;;;;;;;;5033937;28;20040;-63
2022/03/09 12:53:43;;;;;;;7.55;2.38;;;;;;;;;;5039264;28;20675;-63
2022/03/09 12:56:19;;;;;;;7.38;1.85;;;;;;;;;;5046323;28;20111;-63
2022/03/09 12:58:45;;;;;;;7.20;1.17;;;;;;;;;;5039944;28;20135;-63
2022/03/09 13:01:15;;;;;;;5.22;1.30;;;;;;;;;;5042709;28;20028;-63
2022/03/09 13:03:41;;;;;;;14.48;2.70;;;;;;;;;;5037705;28;20021;-63
2022/03/09 13:06:23;;;;;;;9.32;1.95;;;;;;;;;;5040640;28;20033;-63
2022/03/09 13:08:49;;;;;;;9.65;1.60;;;;;;;;;;5048055;28;20084;-63
2022/03/09 13:11:35;;;;;;;6.65;1.67;;;;;;;;;;5045305;28;20033;-63
2022/03/09 13:14:21;;;;;;;6.60;1.42;;;;;;;;;;5038707;28;20036;-62
2022/03/09 13:17:08;;;;;;;5.45;1.40;;;;;;;;;;5043269;28;20041;-63
2022/03/09 13:19:38;;;;;;;6.80;1.50;;;;;;;;;;5044933;28;20489;-63
2022/03/09 13:22:05;;;;;;;9.73;1.80;;;;;;;;;;5040663;28;20036;-63
2022/03/09 13:24:31;;;;;;;10.88;1.95;;;;;;;;;;5044201;28;20021;-63
2022/03/09 13:26:57;;;;;;;10.20;1.85;;;;;;;;;;5036702;28;20382;-66
2022/03/09 13:29:24;;;;;;;9.20;1.80;;;;;;;;;;5040715;28;20048;-63
2022/03/09 13:31:57;;;;;;;7.43;1.98;;;;;;;;;;5044482;28;20028;-63
2022/03/09 13:34:23;;;;;;;;;;;;;;;;;;5036931;28;20030;-63
2022/03/09 13:37:04;;;;;;;6.28;1.75;;;;;;;;;;5041617;28;20009;-63
2022/03/09 13:39:57;;;;;;;8.70;2.13;;;;;;;;;;5041888;28;20056;-63
2022/03/09 13:42:23;;;;;;;7.33;2.03;;;;;;;;;;5038776;28;20049;-63
2022/03/09 13:45:02;;;;;;;5.15;2.13;;;;;;;;;;5043627;28;20037;-63
2022/03/09 13:47:28;;;;;;;7.55;2.78;;;;;;;;;;5042017;28;20180;-63
2022/03/09 13:49:54;;;;;;;8.00;2.15;;;;;;;;;;5044541;28;20048;-63
2022/03/09 13:52:34;;;;;;;8.35;1.92;;;;;;;;;;5046004;28;20524;-63
2022/03/09 13:55:03;;;;;;;10.57;2.40;;;;;;;;;;5046197;28;20025;-63
2022/03/09 13:57:37;;;;;;;7.18;1.88;;;;;;;;;;5038879;28;20026;-63
2022/03/09 14:00:23;;;;;;;14.43;2.10;;;;;;;;;;5044459;28;20029;-63
2022/03/09 14:02:55;;;;;;;10.75;1.90;;;;;;;;;;5050556;28;20024;-63
2022/03/09 14:05:28;;;;;;;9.20;2.33;;;;;;;;;;5044537;28;20022;-63
2022/03/09 14:07:54;;;;;;;7.63;2.33;;;;;;;;;;5044898;28;20061;-63
2022/03/09 14:10:26;;;;;;;8.55;2.35;;;;;;;;;;5051156;28;20492;-63
2022/03/09 14:12:53;;;;;;;8.60;2.13;;;;;;;;;;5047551;28;20409;-63
2022/03/09 14:15:20;;;;;;;15.23;2.65;;;;;;;;;;5046198;28;20148;-63
2022/03/09 14:17:46;;;;;;;13.93;2.08;;;;;;;;;;5045367;28;20033;-63
2022/03/09 14:20:14;;;;;;;9.63;2.20;;;;;;;;;;5054224;28;20052;-63
2022/03/09 14:22:40;;;;;;;11.13;2.72;;;;;;;;;;5044970;28;20477;-63
2022/03/09 14:25:07;;;;;;;7.80;1.90;;;;;;;;;;5039675;28;20037;-63
2022/03/09 14:27:33;;;;;;;8.70;2.55;;;;;;;;;;5048160;28;20116;-63
2022/03/09 14:29:59;;;;;;;10.63;2.38;;;;;;;;;;5040381;28;20590;-63
2022/03/09 14:32:25;;;;;;;7.28;2.10;;;;;;;;;;5044181;28;20021;-63
2022/03/09 14:34:51;;;;;;;7.32;2.20;;;;;;;;;;5050338;28;20054;-63
2022/03/09 14:37:18;;;;;;;15.18;2.47;;;;;;;;;;5040198;28;20121;-63
2022/03/09 14:39:44;;;;;;;7.80;1.98;;;;;;;;;;5036211;28;20540;-63